Airport View

Enter AWOS ICAO identifier for current METAR.

ex. KFNL

KLHZ 191900Z AUTO 21007KT 10SM SCT033 SCT041 30/22 A2981 RMK AO2

19 Jun 2019 19:16

Frequency: 118.325

Phone: 919-497-0810

Other Area AWOS: KHNZ - KRWI - KRDU - KJNX

TAF KRWI 191724Z 1918/2018 23006KT P6SM SCT024 BKN035 OVC060 TEMPO 1918/1922 VRB15G28KT 3SM -TSRA BR SCT010 BKN020CB OVC035 FM200100 21005KT P6SM SCT150 FM201300 23009G16KT P6SM SCT130